»·PEaware :: N768FS KSMA-KPSP

N768FS :: KSMA-KPSP

FLIGHT INFORMATION

Flight Status: Arrived
Operator: Privately registered:
United States
More flights under this callsign
Pilot: Steve R. (31194)
Aircraft: CIRRUS SR-22 TURBO
(S22T)
More flights by this aircraft type
Origin: KSMA
Destination: KPSP Palm Springs Intl
United States
More flights between these airports :: More routes between these airports
Route:
File this flight plan on PilotEdge
Remarks:
Altitude:
(Current/Filed)
0ft
Speed:
(Current/Filed)
0kts
Departed: 08-Jan-21 03:17 PM
Arrived: 08-Jan-21 03:58 PM
Distance/Time
Traveled:
Not Available
Distance/Time
To Go:
Arrived

Flight Plot

Page will automatically refresh every two minutes.

Flight plan parsing failed; only flown route is shown


Map Options




Map Legend


Flown Route
Filed Route
Departure Airport
Arrival Airport
Navaid (VOR, NDB)
Fix

Horizontal Profiles

Position Reports

Time Latitude Longitude Heading Altitude Ground
Speed
08-Jan-21 15:09 34.019371 -118.447996 313 159ft 0kts
08-Jan-21 15:10 34.019371 -118.447996 313 159ft 0kts
08-Jan-21 15:11 34.019372 -118.447997 313 159ft 0kts
08-Jan-21 15:12 34.019371 -118.447996 313 159ft 0kts
08-Jan-21 15:13 34.019371 -118.447996 313 159ft 0kts
08-Jan-21 15:14 34.019544 -118.447714 125 159ft 0kts
08-Jan-21 15:15 34.019544 -118.447714 125 159ft 0kts
08-Jan-21 15:16 34.017232 -118.449665 226 147ft 79kts
08-Jan-21 15:17 34.001255 -118.480121 254 1555ft 113kts
08-Jan-21 15:18 34.018721 -118.505652 5 3222ft 119kts
08-Jan-21 15:19 34.031392 -118.480881 70 4147ft 132kts
08-Jan-21 15:20 34.034893 -118.469347 64 4428ft 135kts
08-Jan-21 15:21 34.055821 -118.421679 57 4496ft 177kts
08-Jan-21 15:22 34.082207 -118.369906 57 4478ft 183kts
08-Jan-21 15:23 34.107816 -118.322294 68 4480ft 183kts
08-Jan-21 15:24 34.115120 -118.264305 97 4502ft 182kts
08-Jan-21 15:25 34.109820 -118.205720 96 5173ft 151kts
08-Jan-21 15:26 34.105428 -118.157359 95 6303ft 146kts
08-Jan-21 15:27 34.100937 -118.108059 93 7347ft 149kts
08-Jan-21 15:28 34.096518 -118.051653 92 7521ft 186kts
08-Jan-21 15:29 34.092195 -117.987960 91 7514ft 192kts
08-Jan-21 15:30 34.087789 -117.923323 91 7516ft 193kts
08-Jan-21 15:31 34.083359 -117.858876 91 7518ft 192kts
08-Jan-21 15:32 34.078894 -117.794452 91 7518ft 192kts
08-Jan-21 15:33 34.079784 -117.730138 84 7516ft 191kts
08-Jan-21 15:34 34.081340 -117.666025 83 7514ft 190kts
08-Jan-21 15:35 34.082859 -117.601937 83 7511ft 190kts
08-Jan-21 15:36 34.084337 -117.538031 83 7509ft 189kts
08-Jan-21 15:37 34.085780 -117.474371 83 7507ft 189kts
08-Jan-21 15:38 34.087175 -117.411096 82 7504ft 188kts
08-Jan-21 15:39 34.088548 -117.347821 83 7501ft 188kts
08-Jan-21 15:40 34.075642 -117.286637 109 7502ft 193kts
08-Jan-21 15:41 34.054732 -117.226991 109 7502ft 193kts
08-Jan-21 15:42 34.033852 -117.167319 109 7503ft 192kts
08-Jan-21 15:43 34.013027 -117.107895 108 7505ft 192kts
08-Jan-21 15:44 33.992287 -117.048780 109 7506ft 191kts
08-Jan-21 15:45 33.971513 -116.989729 109 7507ft 191kts
08-Jan-21 15:46 33.950563 -116.930270 110 7257ft 194kts
08-Jan-21 15:47 33.930652 -116.873920 110 6447ft 174kts
08-Jan-21 15:48 33.923274 -116.819315 88 5714ft 163kts
08-Jan-21 15:49 33.921431 -116.765376 88 5006ft 159kts
08-Jan-21 15:50 33.919846 -116.712663 88 4321ft 155kts
08-Jan-21 15:51 33.918751 -116.663034 88 3694ft 149kts
08-Jan-21 15:52 33.902188 -116.620024 121 3070ft 141kts
08-Jan-21 15:53 33.882520 -116.581490 117 2479ft 130kts
08-Jan-21 15:54 33.862463 -116.549843 111 1788ft 109kts
08-Jan-21 15:55 33.846770 -116.522863 139 697ft 93kts
08-Jan-21 15:56 33.829186 -116.507218 145 422ft 44kts
08-Jan-21 15:57 33.825439 -116.502620 111 409ft 0kts
08-Jan-21 15:59 33.824466 -116.501357 138 405ft 14kts
08-Jan-21 16:00 33.824314 -116.498645 67 399ft 7kts
08-Jan-21 16:01 33.824363 -116.498582 42 399ft 0kts
08-Jan-21 16:02 33.824363 -116.498582 42 399ft 0kts
08-Jan-21 16:03 33.824363 -116.498582 42 399ft 0kts
08-Jan-21 16:04 33.824363 -116.498582 42 399ft 0kts
08-Jan-21 16:05 33.824363 -116.498582 42 399ft 0kts
08-Jan-21 16:06 33.824363 -116.498582 42 399ft 0kts
08-Jan-21 16:07 33.824363 -116.498582 42 399ft 0kts
08-Jan-21 16:08 33.824363 -116.498582 42 399ft 0kts
08-Jan-21 16:09 33.824363 -116.498582 42 399ft 0kts
08-Jan-21 16:09 33.824363 -116.498582 42 399ft 0kts
08-Jan-21 16:10 33.824363 -116.498582 42 399ft 0kts
08-Jan-21 16:12 33.824363 -116.498582 42 399ft 0kts

Navigation Log

Ident Type
Flight plan parsing failed, navigation log unavailable